Time;durP1;ratioP1;P1;durP2;ratioP2;P2;SDS_P1;SDS_P2;PMS_P1;PMS_P2;Temp;Humidity;BMP_temperature;BMP_pressure;BME280_temperature;BME280_humidity;BME280_pressure;Samples;Min_cycle;Max_cycle;Signal;HPM_P1;HPM_P2
2023/11/07 00:01:10;;;;;;;11.27;4.87;;;;;;;;;;5052442;28;20335;-82
2023/11/07 00:03:37;;;;;;;9.00;4.67;;;;;;;;;;5052641;28;20290;-82
2023/11/07 00:06:05;;;;;;;9.67;4.50;;;;;;;;;;5053038;28;20231;-82
2023/11/07 00:08:32;;;;;;;10.30;4.40;;;;;;;;;;5052783;28;20227;-82
2023/11/07 00:10:59;;;;;;;9.90;4.90;;;;;;;;;;5053081;28;20294;-82
2023/11/07 00:13:26;;;;;;;10.87;4.63;;;;;;;;;;5052609;28;20196;-82
2023/11/07 00:15:53;;;;;;;11.33;4.63;;;;;;;;;;5051763;28;20227;-82
2023/11/07 00:18:22;;;;;;;11.77;4.00;;;;;;;;;;5052896;28;20294;-83
2023/11/07 00:20:49;;;;;;;9.87;4.50;;;;;;;;;;5052624;28;20956;-82
2023/11/07 00:23:16;;;;;;;11.40;4.83;;;;;;;;;;5052725;28;20615;-82
2023/11/07 00:25:43;;;;;;;11.77;5.07;;;;;;;;;;5052335;28;20306;-83
2023/11/07 00:28:11;;;;;;;12.80;5.30;;;;;;;;;;5052247;28;20641;-81
2023/11/07 00:30:38;;;;;;;11.57;5.23;;;;;;;;;;5051964;28;20310;-81
2023/11/07 00:33:06;;;;;;;10.60;5.13;;;;;;;;;;5052210;28;20278;-82
2023/11/07 00:35:36;;;;;;;10.93;5.00;;;;;;;;;;5035296;28;20246;-82
2023/11/07 00:38:04;;;;;;;10.23;4.40;;;;;;;;;;5032423;28;20371;-82
2023/11/07 00:40:31;;;;;;;15.27;4.80;;;;;;;;;;5032277;28;20230;-82
2023/11/07 00:42:59;;;;;;;9.43;5.20;;;;;;;;;;5032016;28;20238;-82
2023/11/07 00:45:27;;;;;;;10.83;5.23;;;;;;;;;;5032355;28;20201;-81
2023/11/07 00:47:54;;;;;;;11.43;4.70;;;;;;;;;;5032591;28;20264;-82
2023/11/07 00:50:21;;;;;;;10.50;4.87;;;;;;;;;;5031912;28;20283;-81
2023/11/07 00:52:49;;;;;;;13.97;4.87;;;;;;;;;;5032167;28;20280;-82
2023/11/07 00:55:17;;;;;;;8.97;4.33;;;;;;;;;;5033101;28;20687;-81
2023/11/07 00:57:44;;;;;;;12.00;4.93;;;;;;;;;;5051926;28;20646;-81
2023/11/07 01:00:12;;;;;;;8.20;4.07;;;;;;;;;;5051375;28;20718;-82
2023/11/07 01:02:39;;;;;;;14.47;4.30;;;;;;;;;;5052367;28;20203;-82
2023/11/07 01:05:07;;;;;;;10.00;3.80;;;;;;;;;;5051388;28;20669;-82
2023/11/07 01:07:34;;;;;;;11.00;3.83;;;;;;;;;;5051577;28;20202;-82
2023/11/07 01:10:03;;;;;;;9.10;3.73;;;;;;;;;;5043894;28;20207;-83
2023/11/07 01:12:30;;;;;;;9.47;3.77;;;;;;;;;;5030643;28;20197;-82
2023/11/07 01:14:57;;;;;;;9.60;3.83;;;;;;;;;;5031633;28;20231;-82
2023/11/07 01:17:26;;;;;;;8.90;3.73;;;;;;;;;;5031590;28;20216;-81
2023/11/07 01:19:53;;;;;;;8.63;3.70;;;;;;;;;;5031307;28;20204;-81
2023/11/07 01:22:21;;;;;;;10.20;4.23;;;;;;;;;;5031735;28;20228;-82
2023/11/07 01:24:48;;;;;;;9.73;3.73;;;;;;;;;;5013627;28;20204;-83
2023/11/07 01:27:17;;;;;;;10.97;3.93;;;;;;;;;;5030359;28;20203;-82
2023/11/07 01:29:44;;;;;;;7.93;3.60;;;;;;;;;;5031531;28;20652;-82
2023/11/07 01:32:11;;;;;;;10.10;3.97;;;;;;;;;;5031497;28;20224;-81
2023/11/07 01:34:38;;;;;;;8.13;3.97;;;;;;;;;;5031485;28;20286;-82
2023/11/07 01:37:06;;;;;;;8.23;3.73;;;;;;;;;;5031080;28;20342;-81
2023/11/07 01:39:33;;;;;;;6.70;3.57;;;;;;;;;;5031388;28;20288;-82
2023/11/07 01:42:01;;;;;;;8.97;3.60;;;;;;;;;;5031372;28;20323;-82
2023/11/07 01:44:30;;;;;;;11.57;4.07;;;;;;;;;;5031392;28;20263;-82
2023/11/07 01:46:58;;;;;;;14.13;3.63;;;;;;;;;;5031187;28;20203;-82
2023/11/07 01:49:26;;;;;;;8.10;3.83;;;;;;;;;;5030871;28;20297;-81
2023/11/07 01:51:55;;;;;;;11.80;3.80;;;;;;;;;;5031490;28;20201;-82
2023/11/07 01:54:23;;;;;;;12.37;3.90;;;;;;;;;;5030774;28;20235;-82
2023/11/07 01:56:50;;;;;;;10.20;3.90;;;;;;;;;;5030787;28;20250;-82
2023/11/07 01:59:18;;;;;;;9.93;4.13;;;;;;;;;;5031461;28;20624;-82
2023/11/07 02:01:48;;;;;;;12.73;4.73;;;;;;;;;;5031072;28;20231;-82
2023/11/07 02:04:15;;;;;;;11.77;4.13;;;;;;;;;;5031071;28;20223;-82
2023/11/07 02:06:44;;;;;;;14.60;4.07;;;;;;;;;;5031310;28;20238;-82
2023/11/07 02:09:11;;;;;;;13.00;4.40;;;;;;;;;;5031295;28;20227;-82
2023/11/07 02:11:39;;;;;;;10.47;4.03;;;;;;;;;;5030477;28;20241;-82
2023/11/07 02:14:07;;;;;;;10.67;4.23;;;;;;;;;;5031021;28;20204;-82
2023/11/07 02:16:34;;;;;;;11.30;3.90;;;;;;;;;;5031609;28;20201;-82
2023/11/07 02:19:03;;;;;;;14.73;3.97;;;;;;;;;;5031166;28;20287;-82
2023/11/07 02:21:31;;;;;;;12.47;4.20;;;;;;;;;;5031059;28;20228;-83
2023/11/07 02:23:59;;;;;;;12.00;3.80;;;;;;;;;;5030996;28;20207;-82
2023/11/07 02:26:27;;;;;;;12.60;4.30;;;;;;;;;;5030385;28;20673;-82
2023/11/07 02:28:54;;;;;;;11.60;4.13;;;;;;;;;;5030840;28;20637;-82
2023/11/07 02:31:21;;;;;;;13.33;4.17;;;;;;;;;;5030484;28;20743;-82
2023/11/07 02:33:48;;;;;;;9.17;3.90;;;;;;;;;;5031002;28;20192;-82
2023/11/07 02:36:15;;;;;;;10.80;4.50;;;;;;;;;;5031015;28;20551;-81
2023/11/07 02:38:43;;;;;;;13.17;4.20;;;;;;;;;;5031735;28;20628;-82
2023/11/07 02:41:11;;;;;;;10.80;4.23;;;;;;;;;;5033943;28;20239;-82
2023/11/07 02:43:39;;;;;;;18.40;4.87;;;;;;;;;;5034439;28;20227;-82
2023/11/07 02:46:07;;;;;;;9.03;4.60;;;;;;;;;;5034630;28;20617;-82
2023/11/07 02:48:34;;;;;;;13.13;5.07;;;;;;;;;;5034417;28;20271;-82
2023/11/07 02:51:02;;;;;;;12.03;4.47;;;;;;;;;;5034339;28;20203;-82
2023/11/07 02:53:30;;;;;;;10.80;4.60;;;;;;;;;;5034162;28;20251;-82
2023/11/07 02:55:57;;;;;;;13.10;4.17;;;;;;;;;;5034287;28;20232;-82
2023/11/07 02:58:25;;;;;;;13.00;4.63;;;;;;;;;;5034536;28;20618;-81
2023/11/07 03:00:53;;;;;;;10.80;4.47;;;;;;;;;;5033280;28;20327;-82
2023/11/07 03:03:20;;;;;;;12.27;4.23;;;;;;;;;;5033954;28;20239;-83
2023/11/07 03:05:47;;;;;;;14.70;4.53;;;;;;;;;;5034502;28;20231;-81
2023/11/07 03:08:14;;;;;;;17.90;4.00;;;;;;;;;;5033993;28;20228;-82
2023/11/07 03:10:41;;;;;;;12.23;4.17;;;;;;;;;;5033809;28;20235;-83
2023/11/07 03:13:08;;;;;;;11.57;3.90;;;;;;;;;;5033976;28;20232;-82
2023/11/07 03:15:37;;;;;;;11.27;3.57;;;;;;;;;;5033978;28;20196;-82
2023/11/07 03:18:04;;;;;;;8.57;3.57;;;;;;;;;;5033879;28;20610;-82
2023/11/07 03:20:32;;;;;;;14.40;4.20;;;;;;;;;;5033848;28;20287;-83
2023/11/07 03:22:59;;;;;;;12.43;3.53;;;;;;;;;;5033463;28;20204;-82
2023/11/07 03:25:26;;;;;;;14.53;3.90;;;;;;;;;;5026774;28;20797;-82
2023/11/07 03:27:54;;;;;;;12.77;3.87;;;;;;;;;;5027584;28;20212;-82
2023/11/07 03:30:21;;;;;;;9.37;3.67;;;;;;;;;;5033684;28;20232;-83
2023/11/07 03:32:49;;;;;;;12.73;3.83;;;;;;;;;;5033195;28;20236;-82
2023/11/07 03:35:17;;;;;;;8.63;3.43;;;;;;;;;;5033621;28;20205;-83
2023/11/07 03:37:46;;;;;;;12.97;3.30;;;;;;;;;;5033317;28;20594;-82
2023/11/07 03:40:13;;;;;;;11.40;4.00;;;;;;;;;;5033475;28;20192;-82
2023/11/07 03:42:40;;;;;;;10.20;3.63;;;;;;;;;;5033321;28;20815;-82
2023/11/07 03:45:08;;;;;;;14.60;3.87;;;;;;;;;;5033323;28;20200;-82
2023/11/07 03:47:36;;;;;;;13.60;3.57;;;;;;;;;;5033234;28;20231;-81
2023/11/07 03:50:04;;;;;;;12.70;3.80;;;;;;;;;;5032799;28;20203;-83
2023/11/07 03:52:31;;;;;;;12.73;4.10;;;;;;;;;;5032747;28;20236;-82
2023/11/07 03:54:59;;;;;;;7.60;3.30;;;;;;;;;;5033457;28;20232;-82
2023/11/07 03:57:26;;;;;;;9.73;3.23;;;;;;;;;;5030535;28;20705;-81
2023/11/07 03:59:53;;;;;;;11.90;3.60;;;;;;;;;;5021997;28;20643;-82
2023/11/07 04:02:21;;;;;;;9.13;3.37;;;;;;;;;;5013271;28;20269;-82
2023/11/07 04:04:48;;;;;;;14.87;3.77;;;;;;;;;;5013144;28;20209;-83
2023/11/07 04:07:17;;;;;;;13.77;3.47;;;;;;;;;;5013102;28;20197;-82
2023/11/07 04:09:45;;;;;;;10.83;4.00;;;;;;;;;;5012973;28;20673;-83
2023/11/07 04:12:13;;;;;;;12.80;3.37;;;;;;;;;;5013103;28;20295;-83
2023/11/07 04:14:41;;;;;;;9.20;3.27;;;;;;;;;;5013471;28;20201;-83
2023/11/07 04:17:08;;;;;;;12.03;3.67;;;;;;;;;;5013150;28;20263;-82
2023/11/07 04:19:36;;;;;;;11.53;3.93;;;;;;;;;;5013002;28;20227;-81
2023/11/07 04:22:04;;;;;;;18.27;3.77;;;;;;;;;;5012355;28;20278;-82
2023/11/07 04:24:32;;;;;;;13.30;4.00;;;;;;;;;;5012786;28;20208;-82
2023/11/07 04:26:59;;;;;;;14.23;3.40;;;;;;;;;;5012655;28;20245;-82
2023/11/07 04:29:26;;;;;;;10.83;3.70;;;;;;;;;;5013200;28;20232;-82
2023/11/07 04:31:54;;;;;;;10.43;4.00;;;;;;;;;;5012464;28;20326;-83
2023/11/07 04:34:21;;;;;;;9.60;3.00;;;;;;;;;;5019072;28;20262;-83
2023/11/07 04:36:48;;;;;;;10.87;3.40;;;;;;;;;;5032368;28;20202;-82
2023/11/07 04:39:15;;;;;;;8.10;3.33;;;;;;;;;;5032087;28;20681;-83
2023/11/07 04:41:44;;;;;;;9.27;3.30;;;;;;;;;;5032223;28;20262;-82
2023/11/07 04:44:11;;;;;;;11.77;3.17;;;;;;;;;;5031817;28;20300;-82
2023/11/07 04:46:39;;;;;;;11.50;3.03;;;;;;;;;;5032306;28;20224;-83
2023/11/07 04:49:07;;;;;;;9.17;3.10;;;;;;;;;;5032292;28;20204;-82
2023/11/07 04:51:34;;;;;;;12.93;3.40;;;;;;;;;;5031508;28;20203;-82
2023/11/07 04:54:02;;;;;;;13.50;3.30;;;;;;;;;;5032186;28;20246;-83
2023/11/07 04:56:29;;;;;;;12.17;3.10;;;;;;;;;;5032023;28;20200;-82
2023/11/07 04:58:58;;;;;;;10.00;3.40;;;;;;;;;;5032020;28;20203;-82
2023/11/07 05:01:25;;;;;;;11.47;3.30;;;;;;;;;;5031832;28;20261;-82
2023/11/07 05:03:53;;;;;;;9.53;3.27;;;;;;;;;;5032169;28;20626;-82
2023/11/07 05:06:20;;;;;;;11.90;3.10;;;;;;;;;;5031827;28;20196;-82
2023/11/07 05:08:47;;;;;;;7.87;2.70;;;;;;;;;;5031904;28;20244;-82
2023/11/07 05:11:17;;;;;;;10.67;3.67;;;;;;;;;;5031998;28;20227;-81
2023/11/07 05:13:44;;;;;;;6.80;2.83;;;;;;;;;;5031812;28;20666;-82
2023/11/07 05:16:13;;;;;;;9.90;2.80;;;;;;;;;;5031471;28;20204;-81
2023/11/07 05:18:40;;;;;;;8.07;2.90;;;;;;;;;;5031809;28;20196;-80
2023/11/07 05:21:08;;;;;;;10.07;2.90;;;;;;;;;;5031236;28;20208;-82
2023/11/07 05:23:35;;;;;;;10.47;3.07;;;;;;;;;;5031827;28;20230;-83
2023/11/07 05:26:04;;;;;;;11.37;3.50;;;;;;;;;;5029922;28;20581;-81
2023/11/07 05:28:32;;;;;;;11.07;3.60;;;;;;;;;;5022636;28;20269;-80
2023/11/07 05:30:59;;;;;;;12.47;3.40;;;;;;;;;;5017519;28;20275;-80
2023/11/07 05:33:28;;;;;;;11.50;3.00;;;;;;;;;;5031242;28;20744;-79
2023/11/07 05:35:55;;;;;;;10.57;3.20;;;;;;;;;;5032146;28;20211;-80
2023/11/07 05:38:22;;;;;;;16.30;3.30;;;;;;;;;;5031241;28;20231;-80
2023/11/07 05:40:50;;;;;;;10.63;3.30;;;;;;;;;;5031631;28;20249;-81
2023/11/07 05:43:18;;;;;;;11.80;3.60;;;;;;;;;;5031487;28;20730;-85
2023/11/07 05:45:46;;;;;;;10.57;3.53;;;;;;;;;;5013951;28;20207;-85
2023/11/07 05:48:13;;;;;;;12.33;3.60;;;;;;;;;;5014372;28;20267;-83
2023/11/07 05:50:42;;;;;;;11.17;4.07;;;;;;;;;;4994740;28;20633;-85
2023/11/07 05:53:09;;;;;;;10.73;3.57;;;;;;;;;;5012165;28;20580;-85
2023/11/07 05:55:37;;;;;;;14.03;3.67;;;;;;;;;;5011656;28;20193;-85
2023/11/07 05:58:04;;;;;;;14.73;4.30;;;;;;;;;;5012153;28;20231;-85
2023/11/07 06:00:33;;;;;;;12.17;4.07;;;;;;;;;;5012234;28;20710;-85
2023/11/07 06:03:00;;;;;;;12.13;4.57;;;;;;;;;;5011889;28;20228;-85
2023/11/07 06:05:28;;;;;;;13.57;4.20;;;;;;;;;;5022045;28;20237;-84
2023/11/07 06:07:57;;;;;;;10.63;3.90;;;;;;;;;;5029198;28;20211;-82
2023/11/07 06:10:24;;;;;;;11.07;3.73;;;;;;;;;;5031188;28;20201;-84
2023/11/07 06:12:52;;;;;;;14.63;4.30;;;;;;;;;;5031304;28;20202;-84
2023/11/07 06:15:19;;;;;;;11.23;3.87;;;;;;;;;;5034446;28;20196;-83
2023/11/07 06:17:47;;;;;;;10.50;3.70;;;;;;;;;;5034813;28;20195;-83
2023/11/07 06:20:16;;;;;;;9.37;3.70;;;;;;;;;;5034752;28;20671;-82
2023/11/07 06:22:44;;;;;;;15.97;4.37;;;;;;;;;;5035470;28;20576;-84
2023/11/07 06:25:15;;;;;;;12.50;4.10;;;;;;;;;;5035095;28;20655;-83
2023/11/07 06:27:42;;;;;;;9.93;3.90;;;;;;;;;;5035214;28;20204;-84
2023/11/07 06:30:10;;;;;;;12.73;4.10;;;;;;;;;;5035034;28;20255;-83
2023/11/07 06:32:38;;;;;;;10.53;3.60;;;;;;;;;;5034465;28;20569;-83
2023/11/07 06:35:05;;;;;;;9.67;3.53;;;;;;;;;;5022112;28;20692;-85
2023/11/07 06:37:34;;;;;;;13.90;4.47;;;;;;;;;;5014630;28;20292;-84
2023/11/07 06:40:04;;;;;;;12.00;3.40;;;;;;;;;;5027081;28;20216;-84
2023/11/07 06:42:34;;;;;;;14.27;3.30;;;;;;;;;;5034245;28;20282;-84
2023/11/07 06:45:02;;;;;;;11.23;3.50;;;;;;;;;;5032043;28;20200;-84
2023/11/07 06:47:29;;;;;;;9.90;3.50;;;;;;;;;;5034818;28;20736;-85
2023/11/07 06:49:56;;;;;;;11.63;3.13;;;;;;;;;;5054710;28;20201;-85
2023/11/07 06:52:24;;;;;;;13.03;3.60;;;;;;;;;;5054882;28;20645;-85
2023/11/07 06:54:51;;;;;;;12.63;4.00;;;;;;;;;;5054831;28;20202;-85
2023/11/07 06:57:18;;;;;;;11.63;3.37;;;;;;;;;;5054712;28;20668;-85
2023/11/07 06:59:47;;;;;;;8.10;3.80;;;;;;;;;;5055017;28;20294;-85
2023/11/07 07:02:14;;;;;;;11.87;3.70;;;;;;;;;;5054862;28;20239;-85
2023/11/07 07:04:41;;;;;;;10.00;3.97;;;;;;;;;;5055006;28;20199;-85
2023/11/07 07:07:08;;;;;;;8.83;3.77;;;;;;;;;;5054904;28;20238;-85
2023/11/07 07:09:36;;;;;;;12.03;3.87;;;;;;;;;;5054617;28;20242;-85
2023/11/07 07:12:03;;;;;;;12.57;4.20;;;;;;;;;;5055073;28;20246;-84
2023/11/07 07:14:30;;;;;;;10.57;3.83;;;;;;;;;;5054461;28;20231;-85
2023/11/07 07:17:01;;;;;;;13.00;4.00;;;;;;;;;;5053670;28;20286;-85
2023/11/07 07:19:28;;;;;;;13.30;5.30;;;;;;;;;;5054779;28;20192;-85
2023/11/07 07:21:55;;;;;;;15.07;5.97;;;;;;;;;;5054628;28;20731;-86
2023/11/07 07:24:27;;;;;;;10.83;4.97;;;;;;;;;;5054153;28;20203;-85
2023/11/07 07:26:58;;;;;;;15.17;5.30;;;;;;;;;;5053536;28;20227;-85
2023/11/07 07:29:26;;;;;;;14.77;5.73;;;;;;;;;;5054313;28;20258;-82
2023/11/07 07:31:53;;;;;;;13.20;5.50;;;;;;;;;;5054144;28;20235;-85
2023/11/07 07:34:22;;;;;;;13.80;5.63;;;;;;;;;;5047028;28;20242;-85
2023/11/07 07:36:50;;;;;;;15.37;5.10;;;;;;;;;;5034282;28;20652;-84
2023/11/07 07:39:28;;;;;;;14.70;4.40;;;;;;;;;;5034527;28;20229;-84
2023/11/07 07:41:56;;;;;;;15.00;4.60;;;;;;;;;;5033759;28;20193;-85
2023/11/07 07:44:25;;;;;;;11.77;4.60;;;;;;;;;;5033612;28;20647;-84
2023/11/07 07:46:52;;;;;;;10.10;4.07;;;;;;;;;;5034039;28;20196;-85
2023/11/07 07:49:23;;;;;;;17.40;4.50;;;;;;;;;;5033814;28;20672;-85
2023/11/07 07:51:52;;;;;;;14.63;5.00;;;;;;;;;;5033389;28;20200;-85
2023/11/07 07:54:22;;;;;;;13.60;4.70;;;;;;;;;;5034073;28;20200;-85
2023/11/07 07:56:49;;;;;;;13.10;5.43;;;;;;;;;;5033226;28;20211;-84
2023/11/07 07:59:16;;;;;;;10.30;5.00;;;;;;;;;;5033397;28;20577;-84
2023/11/07 08:01:44;;;;;;;12.50;5.57;;;;;;;;;;5033295;28;20235;-85
2023/11/07 08:04:12;;;;;;;12.37;6.03;;;;;;;;;;5033265;28;20232;-84
2023/11/07 08:06:41;;;;;;;12.07;5.13;;;;;;;;;;5033595;28;20204;-84
2023/11/07 08:09:12;;;;;;;9.33;4.43;;;;;;;;;;5032931;28;20292;-85
2023/11/07 08:11:41;;;;;;;12.47;5.20;;;;;;;;;;5033195;28;20780;-85
2023/11/07 08:14:09;;;;;;;10.03;5.40;;;;;;;;;;5032832;28;20204;-84
2023/11/07 08:16:36;;;;;;;12.77;5.40;;;;;;;;;;5033022;28;20188;-85
2023/11/07 08:19:04;;;;;;;9.40;4.43;;;;;;;;;;5032811;28;20279;-86
2023/11/07 08:21:31;;;;;;;12.70;4.30;;;;;;;;;;5032730;28;20766;-84
2023/11/07 08:23:59;;;;;;;9.68;4.00;;;;;;;;;;5032852;28;20318;-84
2023/11/07 08:26:27;;;;;;;11.52;4.07;;;;;;;;;;5032561;28;20243;-85
2023/11/07 08:28:54;;;;;;;9.52;3.63;;;;;;;;;;5032230;28;20663;-84
2023/11/07 08:31:22;;;;;;;10.40;3.65;;;;;;;;;;5032652;28;20259;-84
2023/11/07 08:33:50;;;;;;;9.95;3.80;;;;;;;;;;5032562;28;20299;-84
2023/11/07 08:36:17;;;;;;;8.45;3.80;;;;;;;;;;5032360;28;20680;-84
2023/11/07 08:38:45;;;;;;;10.68;3.97;;;;;;;;;;5032651;28;20279;-83
2023/11/07 08:41:13;;;;;;;8.93;3.60;;;;;;;;;;5032375;28;20695;-84
2023/11/07 08:43:41;;;;;;;7.93;3.17;;;;;;;;;;5032196;28;20232;-85
2023/11/07 08:46:08;;;;;;;9.35;3.08;;;;;;;;;;5032548;28;20222;-85
2023/11/07 08:48:35;;;;;;;7.38;2.90;;;;;;;;;;5032721;28;20224;-84
2023/11/07 08:51:03;;;;;;;10.52;3.25;;;;;;;;;;5032137;28;20242;-84
2023/11/07 08:53:30;;;;;;;10.05;3.67;;;;;;;;;;5031861;28;20228;-84
2023/11/07 08:55:57;;;;;;;6.88;2.88;;;;;;;;;;5032306;28;20291;-85
2023/11/07 08:58:28;;;;;;;9.25;3.03;;;;;;;;;;5031832;28;20287;-85
2023/11/07 09:00:58;;;;;;;8.48;2.40;;;;;;;;;;5032104;28;20673;-84
2023/11/07 09:03:25;;;;;;;6.45;2.60;;;;;;;;;;5032076;28;20220;-84
2023/11/07 09:05:53;;;;;;;8.88;3.03;;;;;;;;;;5032284;28;20197;-83
2023/11/07 09:08:20;;;;;;;6.70;2.15;;;;;;;;;;5032268;28;20200;-84
2023/11/07 09:10:47;;;;;;;5.97;2.20;;;;;;;;;;5031933;28;20283;-83
2023/11/07 09:13:14;;;;;;;6.03;2.03;;;;;;;;;;5031506;28;20535;-85
2023/11/07 09:15:43;;;;;;;6.15;2.38;;;;;;;;;;5031876;28;20283;-84
2023/11/07 09:18:10;;;;;;;8.10;2.28;;;;;;;;;;5031968;28;20283;-84
2023/11/07 09:20:38;;;;;;;5.25;2.10;;;;;;;;;;5031673;28;20287;-85
2023/11/07 09:23:05;;;;;;;8.60;2.65;;;;;;;;;;5031629;28;20258;-85
2023/11/07 09:25:33;;;;;;;9.32;2.72;;;;;;;;;;5031101;28;20223;-84
2023/11/07 09:28:01;;;;;;;7.32;2.10;;;;;;;;;;5031577;28;20313;-84
2023/11/07 09:30:29;;;;;;;5.68;2.00;;;;;;;;;;5031908;28;20228;-84
2023/11/07 09:32:58;;;;;;;7.15;2.15;;;;;;;;;;5031227;28;20633;-84
2023/11/07 09:35:25;;;;;;;6.97;2.05;;;;;;;;;;5032080;28;20197;-83
2023/11/07 09:37:53;;;;;;;9.07;2.45;;;;;;;;;;5031299;28;20559;-84
2023/11/07 09:40:23;;;;;;;8.98;2.25;;;;;;;;;;5031410;28;20215;-84
2023/11/07 09:42:50;;;;;;;7.38;2.35;;;;;;;;;;5031926;28;20196;-84
2023/11/07 09:45:18;;;;;;;7.07;1.92;;;;;;;;;;5031333;28;20283;-85
2023/11/07 09:47:47;;;;;;;8.25;2.65;;;;;;;;;;5031432;28;20203;-85
2023/11/07 09:50:16;;;;;;;8.85;2.13;;;;;;;;;;5031134;28;20619;-84
2023/11/07 09:52:45;;;;;;;9.20;2.08;;;;;;;;;;5031448;28;20888;-84
2023/11/07 09:55:14;;;;;;;10.57;2.05;;;;;;;;;;5044699;28;20199;-84
2023/11/07 09:57:43;;;;;;;8.98;2.10;;;;;;;;;;5051153;28;20609;-85
2023/11/07 10:00:11;;;;;;;6.32;2.03;;;;;;;;;;5051307;28;20203;-85
2023/11/07 10:02:40;;;;;;;11.30;2.42;;;;;;;;;;5051271;28;20283;-85
2023/11/07 10:05:09;;;;;;;8.05;2.00;;;;;;;;;;5050948;28;20676;-85
2023/11/07 10:07:38;;;;;;;5.55;2.33;;;;;;;;;;5051353;28;20200;-85
2023/11/07 10:10:06;;;;;;;7.80;2.22;;;;;;;;;;5050937;28;20200;-85
2023/11/07 10:12:38;;;;;;;9.93;2.40;;;;;;;;;;5051548;28;20707;-85
2023/11/07 10:15:16;;;;;;;8.10;2.33;;;;;;;;;;5051068;28;20261;-85
2023/11/07 10:17:57;;;;;;;9.75;2.10;;;;;;;;;;5051341;28;20201;-86
2023/11/07 10:20:24;;;;;;;7.60;2.45;;;;;;;;;;5051140;28;20203;-85
2023/11/07 10:22:53;;;;;;;6.03;2.10;;;;;;;;;;5051006;28;20226;-84
2023/11/07 10:25:31;;;;;;;6.40;2.25;;;;;;;;;;5051049;28;20212;-85
2023/11/07 10:28:00;;;;;;;9.20;2.83;;;;;;;;;;5051074;28;20599;-85
2023/11/07 10:30:42;;;;;;;10.10;2.63;;;;;;;;;;5050794;28;20866;-85
2023/11/07 10:33:09;;;;;;;8.95;2.20;;;;;;;;;;5051214;28;20203;-85
2023/11/07 10:35:51;;;;;;;8.13;2.35;;;;;;;;;;5033920;28;20291;-85
2023/11/07 10:38:19;;;;;;;11.10;2.60;;;;;;;;;;5030935;28;20200;-85
2023/11/07 10:40:47;;;;;;;12.02;3.30;;;;;;;;;;5031334;28;20238;-84
2023/11/07 10:43:15;;;;;;;12.38;3.50;;;;;;;;;;5031100;28;20232;-85
2023/11/07 10:45:42;;;;;;;8.95;3.00;;;;;;;;;;5030994;28;20196;-85
2023/11/07 10:48:12;;;;;;;8.20;2.95;;;;;;;;;;5035568;28;20686;-84
2023/11/07 10:50:41;;;;;;;8.32;3.00;;;;;;;;;;5051222;28;20618;-85
2023/11/07 10:53:08;;;;;;;9.68;3.80;;;;;;;;;;5050542;28;20207;-85
2023/11/07 10:55:37;;;;;;;10.77;4.25;;;;;;;;;;5050981;28;20223;-86
2023/11/07 10:58:06;;;;;;;10.15;4.10;;;;;;;;;;5051074;28;20196;-85
2023/11/07 11:00:35;;;;;;;11.35;4.35;;;;;;;;;;5052904;28;20242;-85
2023/11/07 11:03:04;;;;;;;10.10;4.18;;;;;;;;;;5054050;28;20200;-85
2023/11/07 11:05:33;;;;;;;11.45;3.90;;;;;;;;;;5054172;28;20250;-86
2023/11/07 11:08:04;;;;;;;9.27;3.95;;;;;;;;;;5053889;28;20203;-85
2023/11/07 11:10:32;;;;;;;8.57;3.50;;;;;;;;;;5054646;28;20621;-85
2023/11/07 11:13:02;;;;;;;9.63;3.70;;;;;;;;;;5053959;28;20237;-85
2023/11/07 11:15:29;;;;;;;11.35;4.40;;;;;;;;;;5054289;28;20227;-85
2023/11/07 11:17:59;;;;;;;10.20;3.72;;;;;;;;;;5054522;28;20222;-86
2023/11/07 11:20:30;;;;;;;8.15;3.25;;;;;;;;;;5053775;28;20238;-84
2023/11/07 11:23:02;;;;;;;9.00;3.53;;;;;;;;;;5053292;28;20675;-84
2023/11/07 11:25:35;;;;;;;6.95;2.45;;;;;;;;;;5054231;28;20199;-85
2023/11/07 11:28:05;;;;;;;11.00;3.00;;;;;;;;;;5054021;28;20235;-85
2023/11/07 11:30:33;;;;;;;9.55;2.35;;;;;;;;;;5053941;28;20231;-85
2023/11/07 11:33:07;;;;;;;7.63;2.33;;;;;;;;;;5053429;28;20282;-85
2023/11/07 11:35:38;;;;;;;8.27;2.28;;;;;;;;;;5036743;28;20307;-85
2023/11/07 11:38:10;;;;;;;8.95;2.33;;;;;;;;;;5033764;28;20199;-85
2023/11/07 11:40:49;;;;;;;5.75;1.70;;;;;;;;;;5034113;28;20537;-86
2023/11/07 11:43:18;;;;;;;6.22;1.65;;;;;;;;;;5033909;28;20232;-85
2023/11/07 11:45:46;;;;;;;7.03;1.50;;;;;;;;;;5033700;28;20196;-85
2023/11/07 11:48:13;;;;;;;7.97;2.70;;;;;;;;;;5033401;28;20292;-86
2023/11/07 11:50:40;;;;;;;6.38;2.03;;;;;;;;;;5033273;28;20672;-85
2023/11/07 11:53:09;;;;;;;7.22;1.98;;;;;;;;;;5033770;28;20870;-85
2023/11/07 11:55:55;;;;;;;6.38;1.80;;;;;;;;;;5033290;28;20201;-85
2023/11/07 11:58:30;;;;;;;5.30;1.92;;;;;;;;;;5033166;28;20295;-85
2023/11/07 12:00:57;;;;;;;6.07;2.30;;;;;;;;;;5033627;28;20192;-86
2023/11/07 12:03:24;;;;;;;5.70;2.40;;;;;;;;;;5032891;28;20205;-86
2023/11/07 12:06:02;;;;;;;6.30;2.30;;;;;;;;;;5015350;28;20200;-85
2023/11/07 12:08:34;;;;;;;9.63;2.55;;;;;;;;;;5033446;28;20196;-85
2023/11/07 12:11:02;;;;;;;6.10;2.00;;;;;;;;;;5032831;28;20228;-85
2023/11/07 12:13:31;;;;;;;6.78;2.50;;;;;;;;;;5032994;28;20203;-85
2023/11/07 12:16:10;;;;;;;6.72;2.22;;;;;;;;;;5033188;28;20665;-85
2023/11/07 12:18:41;;;;;;;7.45;1.90;;;;;;;;;;5033026;28;20196;-84
2023/11/07 12:21:09;;;;;;;5.13;1.58;;;;;;;;;;5032356;28;20692;-85
2023/11/07 12:23:37;;;;;;;5.05;1.45;;;;;;;;;;5015157;28;20203;-86
2023/11/07 12:26:05;;;;;;;4.22;1.02;;;;;;;;;;5033038;28;20623;-85
2023/11/07 12:28:42;;;;;;;4.82;1.40;;;;;;;;;;5032741;28;20203;-85
2023/11/07 12:31:09;;;;;;;5.35;1.33;;;;;;;;;;5033090;28;20319;-85
2023/11/07 12:33:41;;;;;;;3.63;1.13;;;;;;;;;;5032233;28;20396;-84
2023/11/07 12:36:09;;;;;;;6.70;1.30;;;;;;;;;;5032648;28;20254;-85
2023/11/07 12:38:37;;;;;;;7.57;1.50;;;;;;;;;;5032774;28;20239;-86
2023/11/07 12:41:05;;;;;;;5.40;1.10;;;;;;;;;;5032635;28;20231;-85
2023/11/07 12:43:40;;;;;;;6.88;1.30;;;;;;;;;;5032596;28;20200;-85
2023/11/07 12:46:10;;;;;;;6.15;1.70;;;;;;;;;;5032634;28;20199;-85
2023/11/07 12:48:37;;;;;;;6.32;1.60;;;;;;;;;;5031975;28;20581;-86
2023/11/07 12:51:08;;;;;;;7.25;1.65;;;;;;;;;;5031946;28;20205;-86
2023/11/07 12:53:35;;;;;;;4.93;1.30;;;;;;;;;;5032425;28;20702;-85
2023/11/07 12:56:03;;;;;;;6.05;1.48;;;;;;;;;;5032587;28;20227;-86
2023/11/07 12:58:31;;;;;;;6.40;1.65;;;;;;;;;;5032315;28;20203;-85
2023/11/07 13:01:02;;;;;;;4.63;1.13;;;;;;;;;;5047643;28;20231;-85
2023/11/07 13:03:31;;;;;;;3.08;0.98;;;;;;;;;;5014285;28;20283;-85
2023/11/07 13:05:59;;;;;;;3.00;0.90;;;;;;;;;;5032250;28;20232;-86
2023/11/07 13:08:27;;;;;;;5.95;1.40;;;;;;;;;;5032220;28;20231;-85
2023/11/07 13:10:54;;;;;;;5.40;1.42;;;;;;;;;;5032482;28;20251;-85
2023/11/07 13:13:21;;;;;;;5.13;1.27;;;;;;;;;;5032242;28;20192;-85
2023/11/07 13:15:49;;;;;;;4.88;1.50;;;;;;;;;;5032086;28;20197;-85
2023/11/07 13:18:18;;;;;;;6.32;1.40;;;;;;;;;;5031523;28;20255;-85
2023/11/07 13:20:46;;;;;;;4.55;1.30;;;;;;;;;;5031612;28;20254;-86
2023/11/07 13:23:15;;;;;;;6.45;1.25;;;;;;;;;;5030966;28;20570;-86
2023/11/07 13:25:43;;;;;;;4.88;1.23;;;;;;;;;;5032355;28;20256;-85
2023/11/07 13:28:11;;;;;;;5.82;1.20;;;;;;;;;;5031891;28;20228;-86
2023/11/07 13:30:38;;;;;;;5.25;1.33;;;;;;;;;;5031521;28;20256;-85
2023/11/07 13:33:05;;;;;;;4.47;1.00;;;;;;;;;;5031537;28;20204;-85
2023/11/07 13:35:37;;;;;;;4.53;1.20;;;;;;;;;;5048502;28;20238;-86
2023/11/07 13:38:04;;;;;;;6.22;1.55;;;;;;;;;;5033641;28;20688;-85
2023/11/07 13:40:31;;;;;;;6.20;1.63;;;;;;;;;;5051557;28;20203;-85
2023/11/07 13:42:58;;;;;;;5.90;1.50;;;;;;;;;;5051364;28;20202;-86
2023/11/07 13:45:28;;;;;;;4.07;1.02;;;;;;;;;;5051640;28;20276;-85
2023/11/07 13:48:00;;;;;;;6.15;1.75;;;;;;;;;;5051212;28;20282;-85
2023/11/07 13:50:27;;;;;;;5.88;1.20;;;;;;;;;;5051412;28;20206;-85
2023/11/07 13:52:58;;;;;;;3.17;1.20;;;;;;;;;;5051296;28;20200;-86
2023/11/07 13:55:27;;;;;;;8.38;2.15;;;;;;;;;;5033572;28;20224;-86
2023/11/07 13:57:54;;;;;;;8.10;2.15;;;;;;;;;;5031605;28;20204;-85
2023/11/07 14:00:21;;;;;;;11.45;1.88;;;;;;;;;;5031559;28;20196;-85
2023/11/07 14:02:49;;;;;;;4.80;1.00;;;;;;;;;;5031787;28;20657;-85
2023/11/07 14:05:16;;;;;;;4.43;1.58;;;;;;;;;;5031691;28;20610;-86
2023/11/07 14:07:44;;;;;;;5.93;1.40;;;;;;;;;;5031527;28;20310;-85
2023/11/07 14:10:17;;;;;;;6.20;1.92;;;;;;;;;;5031719;28;20758;-86
2023/11/07 14:12:45;;;;;;;5.20;1.60;;;;;;;;;;5031362;28;20246;-85
2023/11/07 14:15:14;;;;;;;5.28;1.23;;;;;;;;;;5031488;28;20201;-86
2023/11/07 14:17:41;;;;;;;5.00;1.15;;;;;;;;;;5031491;28;20628;-86
2023/11/07 14:20:13;;;;;;;5.97;1.70;;;;;;;;;;5031767;28;20287;-85
2023/11/07 14:22:41;;;;;;;7.43;1.85;;;;;;;;;;5031447;28;20657;-86
2023/11/07 14:25:11;;;;;;;5.38;2.00;;;;;;;;;;5031300;28;20228;-86
2023/11/07 14:27:40;;;;;;;7.20;2.05;;;;;;;;;;5032171;28;20201;-85
2023/11/07 14:30:08;;;;;;;7.25;2.53;;;;;;;;;;5031041;28;20260;-85
2023/11/07 14:32:36;;;;;;;9.13;1.98;;;;;;;;;;5031148;28;20231;-86
2023/11/07 14:35:08;;;;;;;7.88;2.38;;;;;;;;;;5032644;28;20235;-86
2023/11/07 14:37:35;;;;;;;7.13;2.55;;;;;;;;;;5035278;28;20193;-86
2023/11/07 14:40:06;;;;;;;8.13;2.63;;;;;;;;;;5035594;28;20224;-86
2023/11/07 14:42:35;;;;;;;6.93;2.25;;;;;;;;;;5035136;28;20204;-85